Airfield :
LOGIN :

Register | Disclaimer

   EN    FR    IT 

 










Legend :    VFR   Marginal VFR   IFR   Intensive IFR   Very Intensive IFR
Visi :
Ceiling :
>= 8 km
>= 3000ft
5 to 8 km
1000 to 3000 ft
1500m to 5 km
500 to 1000 ft
800 to 1500m
200 to 500 ft
< 800m
< 200 ft
Symbols :   Thunderstorms  Fog  Heavy snow  Heavy precipitations  Wind > 20 kt
SIGMETs :     Misc.  Thunderstorms  Icing  Turbulence  Mountain Waves  Volcanic Ashes






- Airport Elevation : 102 ft
- IATA code : EXT


EGTE - Exeter

CURRENT METAR :
  • 041350Z 18013KT 9999 SCT010 BKN020 17/15 Q1016

EXPIRED METARs :
  • 041320Z 18008KT 9999 SCT008 BKN025 16/15 Q1016
  • 041250Z 19009KT 9999 BKN014 17/14 Q1016
  • 041220Z 19010KT 9999 FEW010 BKN018 17/14 Q1016
  • 041150Z 19011KT 9999 FEW012 BKN018 17/14 Q1016
  • 041120Z 20011KT 9999 FEW012 BKN020 17/13 Q1017

TAF TAF EGTE
Valid from the 04 at 12:00 until the 04 at 21:00 UTC


041102Z 0412/0421 19010KT 9999 SCT020
TEMPO 0412/0421 BKN012
PROB30
TEMPO 0412/0415 21015G25KT



MET'MAP, your aeronautical weather chart ! - Copyright ORBIFLY December 2007 - Disclaimer

ORBIFLY MET'MAP TEAM :

Programming & Development : Alexandra Zaïnal
Original concept : Baudouin d'Aumeries
Technical & hardware support : Manuel Goepfert
Assistance : Marc-Olivier Méhu




SOURCES & CREDITS :

   NOAA